Terminal Aerodrome Forecast
Issued by NWS La Crosse, WI

Home | Current Version | Previous Version | Text Only | Print | Product List | Glossary On
Versions: 1 2 3 4 5 6 7 8 9 10 11 12 13 14 15 16 17
000
FTUS43 KARX 271121
TAFLSE
TAF
KLSE 271121Z 2712/2812 17004KT 5SM BR FEW200
     FM271230 19003KT P6SM SCT200
     FM271800 28004KT P6SM SCT200
     FM280000 34004KT P6SM BKN150
     FM280600 VRB03KT P6SM -SHRA OVC080
     FM281000 33004KT P6SM -SHRA BKN045=

USA.gov is the U.S. government's official web portal to all federal, state and local government web resources and services.